createdAt,value
2023-02-12T00:00:52.687Z,5.43
2023-02-12T00:03:19.118Z,5.42
2023-02-12T00:05:45.739Z,5.50
2023-02-12T00:08:16.166Z,5.50
2023-02-12T00:10:46.449Z,5.52
2023-02-12T00:13:13.137Z,5.52
2023-02-12T00:15:40.670Z,5.49
2023-02-12T00:18:07.544Z,5.53
2023-02-12T00:20:34.346Z,5.53
2023-02-12T00:23:03.241Z,5.53
2023-02-12T00:25:29.871Z,5.50
2023-02-12T00:27:56.238Z,5.57
2023-02-12T00:30:22.704Z,5.54
2023-02-12T00:32:49.239Z,5.53
2023-02-12T00:35:16.153Z,5.54
2023-02-12T00:37:42.764Z,5.52
2023-02-12T00:40:09.708Z,5.52
2023-02-12T00:42:36.056Z,5.51
2023-02-12T00:45:04.747Z,5.48
2023-02-12T00:47:31.178Z,5.49
2023-02-12T00:49:57.550Z,5.45
2023-02-12T00:52:23.883Z,5.44
2023-02-12T00:54:50.290Z,5.46
2023-02-12T00:57:16.652Z,5.46
2023-02-12T00:59:43.096Z,5.54
2023-02-12T01:02:09.615Z,5.48
2023-02-12T01:04:36.093Z,5.48
2023-02-12T01:07:02.595Z,5.49
2023-02-12T01:09:29.154Z,5.48
2023-02-12T01:11:55.561Z,5.47
2023-02-12T01:14:22.028Z,5.47
2023-02-12T01:16:48.529Z,5.43
2023-02-12T01:19:15.319Z,5.42
2023-02-12T01:21:44.128Z,5.41
2023-02-12T01:24:15.573Z,5.39
2023-02-12T01:26:42.071Z,5.37
2023-02-12T01:29:11.688Z,5.40
2023-02-12T01:31:39.847Z,5.36
2023-02-12T01:34:07.817Z,5.34
2023-02-12T01:36:37.415Z,5.34
2023-02-12T01:39:05.481Z,5.34
2023-02-12T01:41:40.455Z,5.34
2023-02-12T01:44:13.006Z,5.30
2023-02-12T01:46:39.975Z,5.28
2023-02-12T01:49:12.528Z,5.28
2023-02-12T01:51:40.629Z,5.28
2023-02-12T01:54:09.900Z,5.26
2023-02-12T01:56:36.524Z,5.24
2023-02-12T01:59:03.392Z,5.29
2023-02-12T02:01:32.466Z,5.34
2023-02-12T02:04:05.350Z,5.35
2023-02-12T02:06:39.660Z,5.30
2023-02-12T02:09:06.232Z,5.29
2023-02-12T02:11:50.965Z,5.29
2023-02-12T02:14:32.844Z,5.25
2023-02-12T02:17:20.665Z,5.23
2023-02-12T02:20:24.273Z,5.23
2023-02-12T02:23:12.880Z,5.23
2023-02-12T02:26:04.174Z,5.19
2023-02-12T02:28:42.958Z,5.19
2023-02-12T02:31:41.035Z,5.18
2023-02-12T02:34:19.320Z,5.26
2023-02-12T02:37:00.569Z,5.23
2023-02-12T02:39:59.856Z,5.23
2023-02-12T02:42:37.586Z,5.21
2023-02-12T02:45:18.822Z,5.17
2023-02-12T02:47:55.957Z,5.13
2023-02-12T02:50:25.936Z,5.11
2023-02-12T02:52:57.225Z,5.12
2023-02-12T02:55:26.931Z,5.11
2023-02-12T02:58:05.988Z,5.11
2023-02-12T03:00:38.809Z,5.08
2023-02-12T03:03:17.016Z,5.10
2023-02-12T03:05:49.629Z,5.13
2023-02-12T03:08:25.130Z,5.13
2023-02-12T03:10:57.464Z,5.13
2023-02-12T03:13:34.088Z,5.11
2023-02-12T03:16:06.863Z,5.09
2023-02-12T03:18:42.801Z,5.09
2023-02-12T03:21:13.981Z,5.11
2023-02-12T03:23:52.872Z,5.12
2023-02-12T03:26:31.015Z,5.10
2023-02-12T03:28:57.456Z,5.08
2023-02-12T03:31:45.523Z,5.10
2023-02-12T03:34:35.063Z,5.16
2023-02-12T03:37:18.004Z,5.18
2023-02-12T03:40:00.919Z,5.15
2023-02-12T03:42:33.769Z,5.11
2023-02-12T03:45:33.824Z,5.12
2023-02-12T03:48:28.781Z,5.13
2023-02-12T03:51:13.214Z,5.14
2023-02-12T03:53:39.685Z,5.20
2023-02-12T03:56:14.075Z,5.14
2023-02-12T03:58:42.943Z,5.19
2023-02-12T04:01:09.979Z,5.23
2023-02-12T04:03:36.625Z,5.29
2023-02-12T04:06:03.458Z,5.22
2023-02-12T04:08:32.384Z,5.24
2023-02-12T04:11:13.571Z,5.21
2023-02-12T04:13:54.755Z,5.21
2023-02-12T04:16:37.853Z,5.24
2023-02-12T04:19:04.899Z,5.35
2023-02-12T04:21:55.840Z,5.34
2023-02-12T04:24:40.361Z,5.28
2023-02-12T04:27:24.275Z,5.26
2023-02-12T04:30:05.680Z,5.24
2023-02-12T04:32:52.827Z,5.22
2023-02-12T04:35:22.447Z,5.20
2023-02-12T04:37:55.305Z,5.15
2023-02-12T04:40:23.056Z,5.21
2023-02-12T04:42:52.270Z,5.13
2023-02-12T04:45:31.276Z,5.08
2023-02-12T04:47:57.949Z,5.04
2023-02-12T04:50:24.772Z,5.01
2023-02-12T04:52:52.862Z,5.00
2023-02-12T04:55:19.534Z,5.00
2023-02-12T04:57:46.012Z,5.00
2023-02-12T05:00:17.399Z,5.03
2023-02-12T05:02:44.021Z,5.02
2023-02-12T05:05:10.658Z,5.02
2023-02-12T05:07:37.345Z,4.97
2023-02-12T05:10:04.192Z,5.00
2023-02-12T05:12:30.768Z,5.00
2023-02-12T05:14:57.999Z,4.95
2023-02-12T05:17:24.968Z,4.92
2023-02-12T05:19:51.766Z,4.89
2023-02-12T05:22:18.380Z,4.93
2023-02-12T05:24:45.395Z,4.88
2023-02-12T05:27:11.939Z,4.87
2023-02-12T05:29:38.840Z,4.84
2023-02-12T05:32:07.309Z,4.84
2023-02-12T05:34:36.720Z,4.92
2023-02-12T05:37:03.511Z,4.91
2023-02-12T05:39:39.273Z,4.88
2023-02-12T05:42:05.939Z,4.91
2023-02-12T05:44:32.464Z,4.91
2023-02-12T05:47:06.755Z,4.90
2023-02-12T05:49:36.439Z,4.87
2023-02-12T05:52:03.224Z,4.87
2023-02-12T05:54:29.643Z,4.85
2023-02-12T05:56:56.386Z,4.83
2023-02-12T05:59:23.823Z,4.85
2023-02-12T06:01:52.288Z,4.85
2023-02-12T06:04:29.328Z,4.86
2023-02-12T06:06:56.663Z,4.86
2023-02-12T06:09:23.866Z,4.90
2023-02-12T06:11:50.541Z,4.90
2023-02-12T06:14:21.505Z,4.90
2023-02-12T06:16:50.260Z,4.91
2023-02-12T06:22:03.582Z,4.99
2023-02-12T06:24:30.215Z,4.95
2023-02-12T06:26:58.774Z,4.96
2023-02-12T06:29:27.361Z,4.97
2023-02-12T06:31:57.757Z,4.96
2023-02-12T06:34:24.236Z,4.94
2023-02-12T06:36:53.454Z,4.95
2023-02-12T06:39:19.879Z,4.99
2023-02-12T06:41:46.636Z,5.08
2023-02-12T06:44:13.431Z,5.03
2023-02-12T06:46:42.133Z,5.09
2023-02-12T06:49:08.579Z,5.06
2023-02-12T06:51:40.336Z,5.09
2023-02-12T06:54:16.829Z,5.05
2023-02-12T06:56:46.645Z,5.06
2023-02-12T06:59:15.554Z,5.08
2023-02-12T07:01:42.438Z,5.13
2023-02-12T07:04:21.015Z,5.14
2023-02-12T07:06:47.857Z,5.17
2023-02-12T07:09:15.451Z,5.16
2023-02-12T07:11:41.851Z,5.18
2023-02-12T07:14:13.929Z,5.21
2023-02-12T07:16:40.645Z,5.20
2023-02-12T07:19:07.230Z,5.23
2023-02-12T07:21:42.783Z,5.27
2023-02-12T07:24:18.101Z,5.29
2023-02-12T07:26:44.670Z,5.36
2023-02-12T07:29:13.527Z,5.40
2023-02-12T07:31:41.749Z,5.43
2023-02-12T07:34:10.105Z,5.47
2023-02-12T07:36:37.530Z,5.52
2023-02-12T07:39:04.673Z,5.58
2023-02-12T07:41:34.009Z,5.63
2023-02-12T07:44:07.628Z,5.71
2023-02-12T07:46:39.576Z,5.73
2023-02-12T07:49:07.940Z,5.78
2023-02-12T07:51:35.667Z,5.80
2023-02-12T07:54:09.985Z,5.85
2023-02-12T07:56:40.842Z,5.89
2023-02-12T07:59:11.241Z,5.89
2023-02-12T08:01:46.208Z,5.91
2023-02-12T08:04:15.419Z,5.94
2023-02-12T08:06:45.044Z,5.95
2023-02-12T08:09:15.811Z,5.96
2023-02-12T08:11:42.895Z,6.04
2023-02-12T08:14:12.628Z,6.09
2023-02-12T08:16:40.943Z,6.14
2023-02-12T08:19:19.418Z,6.16
2023-02-12T08:21:57.314Z,6.16
2023-02-12T08:24:28.629Z,6.22
2023-02-12T08:26:55.958Z,6.26
2023-02-12T08:29:31.422Z,6.31
2023-02-12T08:32:03.216Z,6.35
2023-02-12T08:34:45.169Z,6.41
2023-02-12T08:37:14.805Z,6.47
2023-02-12T08:39:43.617Z,6.53
2023-02-12T08:42:14.799Z,6.56
2023-02-12T08:44:42.565Z,6.66
2023-02-12T08:47:10.047Z,6.69
2023-02-12T08:49:36.590Z,6.77
2023-02-12T08:52:05.236Z,6.85
2023-02-12T08:54:34.129Z,6.90
2023-02-12T08:57:02.422Z,6.94
2023-02-12T08:59:29.843Z,6.93
2023-02-12T09:01:56.849Z,7.01
2023-02-12T09:04:30.279Z,7.03
2023-02-12T09:06:59.414Z,7.04
2023-02-12T09:09:26.002Z,7.07
2023-02-12T09:11:56.478Z,6.99
2023-02-12T09:14:31.335Z,7.09
2023-02-12T09:17:03.253Z,7.09
2023-02-12T09:19:29.801Z,7.18
2023-02-12T09:21:58.982Z,7.24
2023-02-12T09:24:30.452Z,7.20
2023-02-12T09:26:57.023Z,7.23
2023-02-12T09:29:23.417Z,7.32
2023-02-12T09:31:52.284Z,7.37
2023-02-12T09:34:18.932Z,7.41
2023-02-12T09:36:47.815Z,7.40
2023-02-12T09:39:19.972Z,7.46
2023-02-12T09:42:08.430Z,7.45
2023-02-12T09:44:42.704Z,7.46
2023-02-12T09:47:30.283Z,7.49
2023-02-12T09:50:11.000Z,7.49
2023-02-12T09:52:37.860Z,7.49
2023-02-12T09:55:05.092Z,7.48
2023-02-12T09:57:37.822Z,7.60
2023-02-12T10:00:16.156Z,7.58
2023-02-12T10:02:42.821Z,7.66
2023-02-12T10:05:35.096Z,7.67
2023-02-12T10:08:26.071Z,7.75
2023-02-12T10:11:22.851Z,7.73
2023-02-12T10:14:08.313Z,7.76
2023-02-12T10:17:03.447Z,7.83
2023-02-12T10:19:51.229Z,7.84
2023-02-12T10:22:23.719Z,7.91
2023-02-12T10:24:59.258Z,7.97
2023-02-12T10:27:46.772Z,7.95
2023-02-12T10:30:23.774Z,7.99
2023-02-12T10:32:54.877Z,8.02
2023-02-12T10:35:25.035Z,8.19
2023-02-12T10:38:04.418Z,8.21
2023-02-12T10:40:37.720Z,8.47
2023-02-12T10:43:04.249Z,8.46
2023-02-12T10:45:33.969Z,8.40
2023-02-12T10:48:16.814Z,8.55
2023-02-12T10:51:05.360Z,8.68
2023-02-12T10:53:43.420Z,8.63
2023-02-12T10:56:13.059Z,8.81
2023-02-12T10:58:42.611Z,8.73
2023-02-12T11:01:19.871Z,8.79
2023-02-12T11:03:46.863Z,8.82
2023-02-12T11:06:22.753Z,9.00
2023-02-12T11:08:51.856Z,9.06
2023-02-12T11:11:23.023Z,9.10
2023-02-12T11:14:04.044Z,9.09
2023-02-12T11:16:32.284Z,9.30
2023-02-12T11:19:01.429Z,9.37
2023-02-12T11:21:28.133Z,9.36
2023-02-12T11:23:56.934Z,9.46
2023-02-12T11:26:30.666Z,9.48
2023-02-12T11:29:04.067Z,9.39
2023-02-12T11:31:33.550Z,9.64
2023-02-12T11:34:06.350Z,9.72
2023-02-12T11:36:36.088Z,9.55
2023-02-12T11:39:02.800Z,9.69
2023-02-12T11:41:41.175Z,9.77
2023-02-12T11:44:13.348Z,9.78
2023-02-12T11:46:40.154Z,9.80
2023-02-12T11:49:09.328Z,9.80
2023-02-12T11:51:36.644Z,9.89
2023-02-12T11:54:06.217Z,9.89
2023-02-12T11:56:45.526Z,9.83
2023-02-12T11:59:42.709Z,9.79
2023-02-12T12:02:23.621Z,9.95
2023-02-12T12:04:56.025Z,9.82
2023-02-12T12:07:32.015Z,9.96
2023-02-12T12:10:06.781Z,9.83
2023-02-12T12:12:42.013Z,9.80
2023-02-12T12:15:51.020Z,9.90
2023-02-12T12:18:52.743Z,9.92
2023-02-12T12:21:30.849Z,10.09
2023-02-12T12:24:02.713Z,9.91
2023-02-12T12:26:31.704Z,10.16
2023-02-12T12:29:14.048Z,10.09
2023-02-12T12:31:42.884Z,10.28
2023-02-12T12:34:13.793Z,10.28
2023-02-12T12:37:18.745Z,10.13
2023-02-12T12:39:54.253Z,10.29
2023-02-12T12:42:37.693Z,10.41
2023-02-12T12:45:31.843Z,10.47
2023-02-12T12:48:13.623Z,10.48
2023-02-12T12:50:46.801Z,10.48
2023-02-12T12:53:18.551Z,10.45
2023-02-12T12:56:00.274Z,10.49
2023-02-12T12:58:54.082Z,10.54
2023-02-12T13:01:26.233Z,10.52
2023-02-12T13:04:11.018Z,10.38
2023-02-12T13:06:37.442Z,10.32
2023-02-12T13:09:21.260Z,10.26
2023-02-12T13:12:02.956Z,10.25
2023-02-12T13:14:47.382Z,10.13
2023-02-12T13:17:41.106Z,10.20
2023-02-12T13:20:31.607Z,10.05
2023-02-12T13:23:09.504Z,10.04
2023-02-12T13:25:46.548Z,9.95
2023-02-12T13:28:19.301Z,9.93
2023-02-12T13:30:52.975Z,9.82
2023-02-12T13:33:27.245Z,9.83
2023-02-12T13:35:59.323Z,9.91
2023-02-12T13:38:30.890Z,9.84
2023-02-12T13:41:04.783Z,9.81
2023-02-12T13:43:50.065Z,9.83
2023-02-12T13:46:30.124Z,9.74
2023-02-12T13:49:10.960Z,9.69
2023-02-12T13:51:47.675Z,9.62
2023-02-12T13:54:27.097Z,9.74
2023-02-12T13:56:57.465Z,9.88
2023-02-12T13:59:32.977Z,9.71
2023-02-12T14:02:23.931Z,9.60
2023-02-12T14:04:55.753Z,9.66
2023-02-12T14:07:26.865Z,9.66
2023-02-12T14:09:53.208Z,9.70
2023-02-12T14:12:37.323Z,9.58
2023-02-12T14:15:18.109Z,9.58
2023-02-12T14:18:06.696Z,9.54
2023-02-12T14:20:37.390Z,9.51
2023-02-12T14:23:40.997Z,9.50
2023-02-12T14:26:14.379Z,9.53
2023-02-12T14:28:54.884Z,9.54
2023-02-12T14:31:23.547Z,9.58
2023-02-12T14:34:15.686Z,9.48
2023-02-12T14:37:09.150Z,9.44
2023-02-12T14:39:35.697Z,9.46
2023-02-12T14:42:14.673Z,9.33
2023-02-12T14:44:59.786Z,9.42
2023-02-12T14:47:29.290Z,9.35
2023-02-12T14:50:01.393Z,9.39
2023-02-12T14:52:35.181Z,9.43
2023-02-12T14:55:22.983Z,9.43
2023-02-12T14:57:54.775Z,9.34
2023-02-12T15:00:35.126Z,9.22
2023-02-12T15:03:27.176Z,9.24
2023-02-12T15:06:02.770Z,9.30
2023-02-12T15:08:44.643Z,9.32
2023-02-12T15:11:40.370Z,9.18
2023-02-12T15:14:24.638Z,9.20
2023-02-12T15:16:58.490Z,9.18
2023-02-12T15:19:43.311Z,9.18
2023-02-12T15:22:38.212Z,9.13
2023-02-12T15:25:24.661Z,9.03
2023-02-12T15:28:18.936Z,8.97
2023-02-12T15:30:48.988Z,8.90
2023-02-12T15:33:36.813Z,8.81
2023-02-12T15:36:04.801Z,8.78
2023-02-12T15:38:41.587Z,8.82
2023-02-12T15:41:09.156Z,8.81
2023-02-12T15:43:43.053Z,8.70
2023-02-12T15:46:17.870Z,8.64
2023-02-12T15:49:03.487Z,8.61
2023-02-12T15:51:44.198Z,9.01
2023-02-12T15:54:18.448Z,8.97
2023-02-12T15:56:48.324Z,8.80
2023-02-12T15:59:23.519Z,8.64
2023-02-12T16:01:58.756Z,8.52
2023-02-12T16:04:31.672Z,8.47
2023-02-12T16:07:00.121Z,8.45
2023-02-12T16:09:51.133Z,8.36
2023-02-12T16:12:31.859Z,8.37
2023-02-12T16:15:05.573Z,8.27
2023-02-12T16:17:34.327Z,8.27
2023-02-12T16:20:00.712Z,8.19
2023-02-12T16:22:40.997Z,8.14
2023-02-12T16:25:17.608Z,8.25
2023-02-12T16:27:59.538Z,8.25
2023-02-12T16:30:30.896Z,8.17
2023-02-12T16:32:58.970Z,8.26
2023-02-12T16:35:40.215Z,8.21
2023-02-12T16:38:45.097Z,8.12
2023-02-12T16:41:16.093Z,8.10
2023-02-12T16:43:43.682Z,8.11
2023-02-12T16:46:12.805Z,7.93
2023-02-12T16:48:42.798Z,7.83
2023-02-12T16:51:29.870Z,7.76
2023-02-12T16:54:07.272Z,7.58
2023-02-12T16:56:40.310Z,7.50
2023-02-12T16:59:09.090Z,7.38
2023-02-12T17:01:37.000Z,7.26
2023-02-12T17:04:18.561Z,7.16
2023-02-12T17:06:47.939Z,7.06
2023-02-12T17:09:14.429Z,6.93
2023-02-12T17:11:42.185Z,6.89
2023-02-12T17:14:16.882Z,6.88
2023-02-12T17:16:43.908Z,6.89
2023-02-12T17:19:13.956Z,6.74
2023-02-12T17:21:43.670Z,6.75
2023-02-12T17:24:30.692Z,6.63
2023-02-12T17:27:01.974Z,6.55
2023-02-12T17:29:29.230Z,6.44
2023-02-12T17:32:00.190Z,6.39
2023-02-12T17:34:39.687Z,6.36
2023-02-12T17:37:15.682Z,6.43
2023-02-12T17:39:42.032Z,6.34
2023-02-12T17:42:08.573Z,6.19
2023-02-12T17:44:35.091Z,6.15
2023-02-12T17:47:01.472Z,6.10
2023-02-12T17:49:28.039Z,6.01
2023-02-12T17:51:54.590Z,6.03
2023-02-12T17:54:21.276Z,6.07
2023-02-12T17:56:50.621Z,5.90
2023-02-12T17:59:17.364Z,5.73
2023-02-12T18:01:44.152Z,5.73
2023-02-12T18:04:13.012Z,5.70
2023-02-12T18:06:39.615Z,5.59
2023-02-12T18:09:06.231Z,5.52
2023-02-12T18:11:33.037Z,5.41
2023-02-12T18:14:02.591Z,5.38
2023-02-12T18:16:31.668Z,5.26
2023-02-12T18:18:59.903Z,5.19
2023-02-12T18:21:26.457Z,5.19
2023-02-12T18:23:54.049Z,5.10
2023-02-12T18:26:21.353Z,5.01
2023-02-12T18:28:50.026Z,4.93
2023-02-12T18:31:19.320Z,4.95
2023-02-12T18:33:48.678Z,4.85
2023-02-12T18:36:17.500Z,4.82
2023-02-12T18:38:45.734Z,4.73
2023-02-12T18:41:18.023Z,4.75
2023-02-12T18:43:45.045Z,4.61
2023-02-12T18:46:20.643Z,4.56
2023-02-12T18:48:47.745Z,4.49
2023-02-12T18:51:21.025Z,4.60
2023-02-12T18:53:48.770Z,4.44
2023-02-12T18:56:15.320Z,4.35
2023-02-12T18:58:41.806Z,4.34
2023-02-12T19:01:15.728Z,4.25
2023-02-12T19:03:42.737Z,4.17
2023-02-12T19:06:09.145Z,4.19
2023-02-12T19:08:35.847Z,4.06
2023-02-12T19:11:04.577Z,4.13
2023-02-12T19:13:33.401Z,4.11
2023-02-12T19:16:03.024Z,3.95
2023-02-12T19:18:29.459Z,4.02
2023-02-12T19:21:01.337Z,3.97
2023-02-12T19:23:27.977Z,3.93
2023-02-12T19:26:06.256Z,4.05
2023-02-12T19:28:36.346Z,3.90
2023-02-12T19:31:18.192Z,3.81
2023-02-12T19:33:45.578Z,3.76
2023-02-12T19:36:18.176Z,3.82
2023-02-12T19:38:47.624Z,3.72
2023-02-12T19:41:17.431Z,3.61
2023-02-12T19:43:44.379Z,3.61
2023-02-12T19:46:17.763Z,3.73
2023-02-12T19:48:59.399Z,3.88
2023-02-12T19:51:33.428Z,3.82
2023-02-12T19:54:01.950Z,3.66
2023-02-12T19:56:28.687Z,3.71
2023-02-12T19:59:00.930Z,3.68
2023-02-12T20:01:28.700Z,3.66
2023-02-12T20:03:57.488Z,3.67
2023-02-12T20:06:27.389Z,3.63
2023-02-12T20:08:53.870Z,3.84
2023-02-12T20:11:24.140Z,3.66
2023-02-12T20:13:51.252Z,3.52
2023-02-12T20:16:20.265Z,3.51
2023-02-12T20:18:49.202Z,3.53
2023-02-12T20:21:25.645Z,3.86
2023-02-12T20:23:52.126Z,3.52
2023-02-12T20:26:19.840Z,3.72
2023-02-12T20:28:49.934Z,3.51
2023-02-12T20:31:22.091Z,3.54
2023-02-12T20:33:52.809Z,3.52
2023-02-12T20:36:19.325Z,3.47
2023-02-12T20:38:47.231Z,3.57
2023-02-12T20:41:13.756Z,3.48
2023-02-12T20:43:43.089Z,3.49
2023-02-12T20:46:15.416Z,3.52
2023-02-12T20:48:42.659Z,3.48
2023-02-12T20:51:14.448Z,3.68
2023-02-12T20:53:42.115Z,3.92
2023-02-12T20:56:16.202Z,4.16
2023-02-12T20:58:44.974Z,3.94
2023-02-12T21:01:19.590Z,3.92
2023-02-12T21:03:46.085Z,3.89
2023-02-12T21:06:15.665Z,3.92
2023-02-12T21:08:42.725Z,3.81
2023-02-12T21:11:20.729Z,3.78
2023-02-12T21:14:02.338Z,3.78
2023-02-12T21:16:34.814Z,4.00
2023-02-12T21:19:01.867Z,4.19
2023-02-12T21:21:34.203Z,3.87
2023-02-12T21:24:07.113Z,4.25
2023-02-12T21:26:36.191Z,4.10
2023-02-12T21:29:03.583Z,3.83
2023-02-12T21:31:33.341Z,3.87
2023-02-12T21:34:08.606Z,3.90
2023-02-12T21:36:39.613Z,3.96
2023-02-12T21:39:08.860Z,4.11
2023-02-12T21:41:41.650Z,4.02
2023-02-12T21:44:12.035Z,4.04
2023-02-12T21:46:41.450Z,4.03
2023-02-12T21:49:08.304Z,4.00
2023-02-12T21:51:42.205Z,3.97
2023-02-12T21:54:12.580Z,3.96
2023-02-12T21:56:44.134Z,3.88
2023-02-12T21:59:20.010Z,3.79
2023-02-12T22:01:49.823Z,3.75
2023-02-12T22:04:20.321Z,3.69
2023-02-12T22:06:51.003Z,3.78
2023-02-12T22:09:22.277Z,3.69
2023-02-12T22:11:52.605Z,3.77
2023-02-12T22:14:20.716Z,3.67
2023-02-12T22:16:47.770Z,3.79
2023-02-12T22:19:15.338Z,3.90
2023-02-12T22:21:44.890Z,3.87
2023-02-12T22:24:16.207Z,4.21
2023-02-12T22:26:46.028Z,4.02
2023-02-12T22:29:17.890Z,4.24
2023-02-12T22:31:48.578Z,3.90
2023-02-12T22:34:19.025Z,3.81
2023-02-12T22:36:46.782Z,3.80
2023-02-12T22:39:14.250Z,3.64
2023-02-12T22:41:44.364Z,3.55
2023-02-12T22:44:13.185Z,3.49
2023-02-12T22:46:43.217Z,3.47
2023-02-12T22:49:15.779Z,3.52
2023-02-12T22:51:47.228Z,3.34
2023-02-12T22:54:18.795Z,3.35
2023-02-12T22:56:46.928Z,3.73
2023-02-12T22:59:13.561Z,3.58
2023-02-12T23:01:46.671Z,3.42
2023-02-12T23:04:18.211Z,3.25
2023-02-12T23:06:47.125Z,3.26
2023-02-12T23:09:24.396Z,3.13
2023-02-12T23:11:51.065Z,3.02
2023-02-12T23:14:18.159Z,2.96
2023-02-12T23:16:45.360Z,2.95
2023-02-12T23:19:12.348Z,3.22
2023-02-12T23:21:41.941Z,3.11
2023-02-12T23:24:15.603Z,2.92
2023-02-12T23:26:44.564Z,3.13
2023-02-12T23:29:11.131Z,2.85
2023-02-12T23:31:37.692Z,3.50
2023-02-12T23:34:04.294Z,3.07
2023-02-12T23:36:36.254Z,3.07
2023-02-12T23:39:05.860Z,3.05
2023-02-12T23:41:34.848Z,2.82
2023-02-12T23:44:11.777Z,2.75
2023-02-12T23:46:38.379Z,3.02
2023-02-12T23:49:05.588Z,2.82
2023-02-12T23:51:32.614Z,2.79
2023-02-12T23:54:04.350Z,2.69
2023-02-12T23:56:30.936Z,2.53
2023-02-12T23:59:10.796Z,2.90
